Pagrindinis puslapis
METAR-TAF:

METAR-TAF

Oro uostai :

Kristiansandas, Norvegija

platuma: 58-12N, ilguma: 008-05E, Aukštis: 1 m

Dabartinis oras

Ataskaita buvo paskelbta 30 minutes, ne 02:20 UTC
Vėjas 15 kt iš Šiaurės Rytų
Temperatūra -4°C
Drėgmė 86%
Slėgis 995 hPa
Matomumas 10 km arba daugiau

METAR: ENCN 010220Z AUTO 05015KT 9999 BKN074/// M04/M06 Q0995

Laikas: 03:50 (02:50 UTC)

Prognozė

Ataskaita buvo paskelbta 50 minutes, ne 02:00 UTC
Prognozė galioja nuo 01 metu 03 UTC su 01 metu 12 UTC
Vėjas 15 kt iš Šiaurės Rytų
Matomumas 10 km arba daugiau
Mažai debesys ne aukštis 2500 ft
Su prošvaistėmis ne aukštis 5000 ft
sniegas
Laikinai
nuo 01 metu 05 UTC su 01 metu 12 UTC
Vėjas 15 kt iš Šiaurės Rytų su gūsio iki 25 kt
Matomumas: 3000 m
ne aukštis 1000 ft
sniegas

TAF: ENCN 010200Z 0103/0112 04015KT 9999 -SN FEW025 BKN050 TEMPO 0105/0112 04015G25KT 3000 SN VV010

Orai ataskaitas ir orų prognozės (METAR, TAF).

turimą stotys yra geltonos ir raudonos taškus žemėlapyje.

Perkelti pele per norėdami pamatyti stoties vardą.

Tada spustelėkite, norėdami matyti oro stebėjimo ir prognozės.

Norėdami pakeisti žemėlapį: spustelėkite ant žalios mygtukų su juodo kryžiaus žemyn,; žalią mygtuką su brūkšneliu, jei norite nutolinti; arba žalių rodyklių gretimoms žemėlapius.


METAR-TAF: